Happyland, Minnesota
Current Conditions -  °F | °C
As of 1:55 AM on Friday 28 Nov 2014 (Local Time) from KINL Reporting Station
Overcast Overcast  
Wind Chill: -9°   Ceiling: 8500
Heat Index:   Visibility: 10mi
Dew Point: -4°   Wind: 6mph
Humidity: 76%   Direction: 150°SSE
Pressure: 30.13"   Gusts: NA
Location:  48.2756°N, 93.4004°W
Report Text: KINL 280755Z AUTO 15005KT 10SM OVC085 M17/M20 A3013 RMK AO2 SLP238 T11671200 $
Loading
Personal Weather Stations






























Interactive Weather Map New forecast layout! Learn more

10-Day Weather Forecast

Advertisements
Track Severe Weather on mobile